Impacts TAF Board
For situational awareness. Not to be used for flight planning purposes.
IDs:

KDCA - Washington/National, VA, US

Issued at 2206 UTC 02 Oct 2022
Updated at 2312 UTC 02 Oct 2022
Potential Impact None Slight Moderate High
Time<<03/12Z 03/13Z 03/14Z 03/15Z 03/16Z 03/17Z 03/18Z 03/19Z 03/20Z 03/21Z 03/22Z 03/23Z 04/00Z>>
Type PRVL PRVL PRVL PRVL PRVL PRVL PRVL PRVL PRVL PRVL PRVL PRVL
VIS >6 >6 >6 >6 >6 >6 >6 >6 >6 >6 >6 >6
CIG 45 45 45 45 50 50 50 50 60 60 60 60
Cover OVC OVC OVC OVC BKN BKN BKN BKN BKN BKN BKN BKN
FltCat VFR VFR VFR VFR VFR VFR VFR VFR VFR VFR VFR VFR
WX -- -- -- -- -- -- -- -- -- -- -- --
WDir 20 20 20 20 10 10 10 10 10 10 10 10
WSpd 13 13 13 13 15 15 15 15 10 10 10 10
WGst 26 26 26 26 30 30 30 30 25 25 25 25
WSHgt -- -- -- -- -- -- -- -- -- -- -- --
WSDir -- -- -- -- -- -- -- -- -- -- -- --
WSSpd -- -- -- -- -- -- -- -- -- -- -- --
Raw TAF
KDCA 022206Z 0222/0324 02015G24KT 3SM -SHRA BR SCT008 BKN027 OVC035
  TEMPO 0222/0224 2SM SHRA
  FM030000 03015G30KT 6SM -SHRA BR OVC025
  FM030800 02013G26KT P6SM OVC045
  FM031600 01015G30KT P6SM BKN050
  FM032000 01010G25KT P6SM BKN060


METAR Board
Radar Display
Forecast Discussion
For situational awareness. Not to be used for flight planning purposes.